createdAt,value
2019-01-03T00:01:29.259Z,3.60
2019-01-03T00:04:17.671Z,3.60
2019-01-03T00:07:12.053Z,3.60
2019-01-03T00:10:06.936Z,3.50
2019-01-03T00:12:58.053Z,3.50
2019-01-03T00:15:58.202Z,3.50
2019-01-03T00:18:48.587Z,3.50
2019-01-03T00:21:38.752Z,3.50
2019-01-03T00:24:27.036Z,3.50
2019-01-03T00:27:14.036Z,3.50
2019-01-03T00:30:02.304Z,3.50
2019-01-03T00:33:08.940Z,3.50
2019-01-03T00:36:15.256Z,3.50
2019-01-03T00:38:56.542Z,3.50
2019-01-03T00:41:43.817Z,3.50
2019-01-03T00:44:30.649Z,3.50
2019-01-03T00:47:17.607Z,3.50
2019-01-03T00:50:08.903Z,3.50
2019-01-03T00:52:56.103Z,3.50
2019-01-03T00:55:50.352Z,3.40
2019-01-03T00:58:39.342Z,3.40
2019-01-03T01:01:36.606Z,3.40
2019-01-03T01:04:37.091Z,3.40
2019-01-03T01:07:40.516Z,3.40
2019-01-03T01:10:27.359Z,3.40
2019-01-03T01:13:19.450Z,3.40
2019-01-03T01:16:07.789Z,3.30
2019-01-03T01:19:02.260Z,3.30
2019-01-03T01:21:49.229Z,3.30
2019-01-03T01:24:43.412Z,3.30
2019-01-03T01:27:40.586Z,3.30
2019-01-03T01:30:32.137Z,3.30
2019-01-03T01:33:23.233Z,3.30
2019-01-03T01:36:10.301Z,3.30
2019-01-03T01:39:04.697Z,3.30
2019-01-03T01:41:51.874Z,3.30
2019-01-03T01:44:46.071Z,3.20
2019-01-03T01:47:44.051Z,3.20
2019-01-03T01:50:32.420Z,3.20
2019-01-03T01:53:19.609Z,3.20
2019-01-03T01:56:26.007Z,3.20
2019-01-03T01:59:23.225Z,3.10
2019-01-03T02:02:10.299Z,3.10
2019-01-03T02:05:10.725Z,3.10
2019-01-03T02:07:57.602Z,3.10
2019-01-03T02:10:43.699Z,3.00
2019-01-03T02:13:33.076Z,3.00
2019-01-03T02:16:19.757Z,3.00
2019-01-03T02:19:20.325Z,3.00
2019-01-03T02:22:07.154Z,3.00
2019-01-03T02:25:13.692Z,3.00
2019-01-03T02:27:56.323Z,3.10
2019-01-03T02:30:43.290Z,3.00
2019-01-03T02:33:31.636Z,3.00
2019-01-03T02:36:19.947Z,3.10
2019-01-03T02:39:08.281Z,3.10
2019-01-03T02:42:05.332Z,3.10
2019-01-03T02:45:02.742Z,3.00
2019-01-03T02:48:09.273Z,3.00
2019-01-03T02:51:10.981Z,3.00
2019-01-03T02:54:01.834Z,3.00
2019-01-03T02:56:53.134Z,3.00
2019-01-03T02:59:55.506Z,2.90
2019-01-03T03:02:46.625Z,2.90
2019-01-03T03:05:46.915Z,2.90
2019-01-03T03:08:37.969Z,2.90
2019-01-03T03:11:24.882Z,2.90
2019-01-03T03:14:13.313Z,2.90
2019-01-03T03:17:13.594Z,2.90
2019-01-03T03:20:01.913Z,2.90
2019-01-03T03:23:02.269Z,2.90
2019-01-03T03:25:49.232Z,2.90
2019-01-03T03:28:36.389Z,2.90
2019-01-03T03:31:23.303Z,2.90
2019-01-03T03:34:10.174Z,2.90
2019-01-03T03:37:01.663Z,2.80
2019-01-03T03:39:48.585Z,2.80
2019-01-03T03:42:35.510Z,2.80
2019-01-03T03:45:12.391Z,2.80
2019-01-03T03:47:58.976Z,2.70
2019-01-03T03:50:53.450Z,2.70
2019-01-03T03:53:40.542Z,2.70
2019-01-03T03:56:27.511Z,2.70
2019-01-03T03:59:14.682Z,2.60
2019-01-03T04:02:08.814Z,2.60
2019-01-03T04:04:55.758Z,2.60
2019-01-03T04:07:46.157Z,2.60
2019-01-03T04:10:38.543Z,2.60
2019-01-03T04:13:25.596Z,2.60
2019-01-03T04:16:16.696Z,2.50
2019-01-03T04:19:05.411Z,2.50
2019-01-03T04:21:52.744Z,2.40
2019-01-03T04:24:39.683Z,2.50
2019-01-03T04:27:30.913Z,2.40
2019-01-03T04:30:19.289Z,2.40
2019-01-03T04:33:13.567Z,2.30
2019-01-03T04:35:57.569Z,2.30
2019-01-03T04:38:51.735Z,2.30
2019-01-03T04:41:45.924Z,2.20
2019-01-03T04:44:41.297Z,2.20
2019-01-03T04:47:24.811Z,2.20
2019-01-03T04:50:11.859Z,2.10
2019-01-03T04:53:06.171Z,2.10
2019-01-03T04:55:53.253Z,2.10
2019-01-03T04:58:40.277Z,2.10
2019-01-03T05:02:15.626Z,2.10
2019-01-03T05:05:09.914Z,2.00
2019-01-03T05:07:57.600Z,2.00
2019-01-03T05:11:04.379Z,2.00
2019-01-03T05:14:02.628Z,2.00
2019-01-03T05:16:50.968Z,1.90
2019-01-03T05:19:51.767Z,2.00
2019-01-03T05:22:37.611Z,1.90
2019-01-03T05:25:38.017Z,1.90
2019-01-03T05:28:38.488Z,1.90
2019-01-03T05:31:35.791Z,1.90
2019-01-03T05:34:33.123Z,1.90
2019-01-03T05:37:30.373Z,1.90
2019-01-03T05:40:18.725Z,1.90
2019-01-03T05:43:03.902Z,1.90
2019-01-03T05:45:45.984Z,1.90
2019-01-03T05:48:33.200Z,1.90
2019-01-03T05:51:27.475Z,1.80
2019-01-03T05:54:14.452Z,1.80
2019-01-03T05:57:01.391Z,1.80
2019-01-03T05:59:49.743Z,1.80
2019-01-03T06:02:43.893Z,1.70
2019-01-03T06:05:44.301Z,1.80
2019-01-03T06:08:41.677Z,1.70
2019-01-03T06:11:19.977Z,1.70
2019-01-03T06:14:08.276Z,1.70
2019-01-03T06:16:55.160Z,1.70
2019-01-03T06:19:42.100Z,1.70
2019-01-03T06:22:26.118Z,1.70
2019-01-03T06:25:26.431Z,1.60
2019-01-03T06:28:12.616Z,1.60
2019-01-03T06:31:16.160Z,1.60
2019-01-03T06:34:07.222Z,1.60
2019-01-03T06:36:54.355Z,1.50
2019-01-03T06:39:48.611Z,1.60
2019-01-03T06:42:36.915Z,1.60
2019-01-03T06:45:23.914Z,1.60
2019-01-03T06:48:21.145Z,1.60
2019-01-03T06:51:06.063Z,1.50
2019-01-03T06:54:08.426Z,1.50
2019-01-03T06:56:55.355Z,1.50
2019-01-03T06:59:52.674Z,1.40
2019-01-03T07:02:46.731Z,1.40
2019-01-03T07:05:33.885Z,1.40
2019-01-03T07:08:25.086Z,1.40
2019-01-03T07:11:25.502Z,1.40
2019-01-03T07:14:20.213Z,1.40
2019-01-03T07:17:05.117Z,1.40
2019-01-03T07:19:59.565Z,1.40
2019-01-03T07:22:47.940Z,1.50
2019-01-03T07:25:35.104Z,1.50
2019-01-03T07:28:29.443Z,1.50
2019-01-03T07:31:26.778Z,1.50
2019-01-03T07:34:21.047Z,1.50
2019-01-03T07:37:18.567Z,1.50
2019-01-03T07:40:18.713Z,1.60
2019-01-03T07:43:05.893Z,1.60
2019-01-03T07:45:56.992Z,1.50
2019-01-03T07:48:44.057Z,1.50
2019-01-03T07:51:30.983Z,1.60
2019-01-03T07:54:19.375Z,1.60
2019-01-03T07:57:06.524Z,1.60
2019-01-03T07:59:53.406Z,1.70
2019-01-03T08:02:40.309Z,1.70
2019-01-03T08:05:37.672Z,1.80
2019-01-03T08:08:26.017Z,1.80
2019-01-03T08:11:13.058Z,1.90
2019-01-03T08:14:04.083Z,1.90
2019-01-03T08:16:50.955Z,2.00
2019-01-03T08:19:37.865Z,2.00
2019-01-03T08:22:32.205Z,2.10
2019-01-03T08:25:23.585Z,2.10
2019-01-03T08:28:10.580Z,2.10
2019-01-03T08:31:04.949Z,2.20
2019-01-03T08:33:56.157Z,2.20
2019-01-03T08:36:59.376Z,2.30
2019-01-03T08:39:47.794Z,2.30
2019-01-03T08:42:33.421Z,2.40
2019-01-03T08:45:20.380Z,2.50
2019-01-03T08:48:14.636Z,2.60
2019-01-03T08:51:05.974Z,2.60
2019-01-03T08:53:53.160Z,2.70
2019-01-03T08:56:59.604Z,2.90
2019-01-03T08:59:56.808Z,3.00
2019-01-03T09:02:44.070Z,3.00
2019-01-03T09:05:33.970Z,3.10
2019-01-03T09:08:22.897Z,3.10
2019-01-03T09:11:09.644Z,3.10
2019-01-03T09:14:04.305Z,3.10
2019-01-03T09:16:51.333Z,3.10
2019-01-03T09:19:48.653Z,3.10
2019-01-03T09:22:52.068Z,3.10
2019-01-03T09:25:55.561Z,3.10
2019-01-03T09:28:55.824Z,3.00
2019-01-03T09:31:42.710Z,3.00
2019-01-03T09:34:37.007Z,3.00
2019-01-03T09:37:27.045Z,3.10
2019-01-03T09:40:20.038Z,3.10
2019-01-03T09:43:10.795Z,3.10
2019-01-03T09:45:44.194Z,3.10
2019-01-03T09:48:11.269Z,3.10
2019-01-03T09:50:40.663Z,3.20
2019-01-03T09:53:10.090Z,3.20
2019-01-03T09:55:39.455Z,3.30
2019-01-03T09:58:08.949Z,3.30
2019-01-03T10:00:38.416Z,3.40
2019-01-03T10:03:07.787Z,3.40
2019-01-03T10:05:37.264Z,3.50
2019-01-03T10:08:06.683Z,3.50
2019-01-03T10:10:36.117Z,3.60
2019-01-03T10:13:05.540Z,3.70
2019-01-03T10:15:34.880Z,3.80
2019-01-03T10:18:04.226Z,3.80
2019-01-03T10:20:33.644Z,3.90
2019-01-03T10:23:04.106Z,4.00
2019-01-03T10:25:33.504Z,4.10
2019-01-03T10:28:02.915Z,4.10
2019-01-03T10:30:32.374Z,4.20
2019-01-03T10:33:01.786Z,4.30
2019-01-03T10:35:31.252Z,4.30
2019-01-03T10:38:00.582Z,4.40
2019-01-03T10:40:29.934Z,4.40
2019-01-03T10:42:59.404Z,4.50
2019-01-03T10:45:28.757Z,4.60
2019-01-03T10:47:59.397Z,4.70
2019-01-03T10:50:29.164Z,4.70
2019-01-03T10:52:58.498Z,4.80
2019-01-03T10:55:27.845Z,4.90
2019-01-03T10:57:57.218Z,4.90
2019-01-03T11:00:26.546Z,4.90
2019-01-03T11:02:55.950Z,5.00
2019-01-03T11:05:25.349Z,5.00
2019-01-03T11:07:54.791Z,5.10
2019-01-03T11:10:24.211Z,5.10
2019-01-03T11:12:56.888Z,5.10
2019-01-03T11:15:26.311Z,5.10
2019-01-03T11:17:55.710Z,5.10
2019-01-03T11:20:25.141Z,5.10
2019-01-03T11:22:54.651Z,5.20
2019-01-03T11:25:24.113Z,5.20
2019-01-03T11:27:53.537Z,5.20
2019-01-03T11:30:22.937Z,5.20
2019-01-03T11:32:52.287Z,5.20
2019-01-03T11:35:21.744Z,5.30
2019-01-03T11:37:51.186Z,5.30
2019-01-03T11:40:20.524Z,5.30
2019-01-03T11:42:50.012Z,5.30
2019-01-03T11:45:19.425Z,5.30
2019-01-03T11:47:48.756Z,5.30
2019-01-03T11:50:18.180Z,5.30
2019-01-03T11:52:47.590Z,5.30
2019-01-03T11:55:16.963Z,5.30
2019-01-03T11:57:46.714Z,5.20
2019-01-03T12:00:16.074Z,5.20
2019-01-03T12:02:45.454Z,5.30
2019-01-03T12:05:14.863Z,5.30
2019-01-03T12:07:44.293Z,5.30
2019-01-03T12:10:13.693Z,5.30
2019-01-03T12:12:43.149Z,5.40
2019-01-03T12:15:12.503Z,5.40
2019-01-03T12:17:41.857Z,5.40
2019-01-03T12:20:11.222Z,5.40
2019-01-03T12:22:40.595Z,5.40
2019-01-03T12:25:10.031Z,5.40
2019-01-03T12:27:39.485Z,5.40
2019-01-03T12:30:10.410Z,5.40
2019-01-03T12:32:39.737Z,5.40
2019-01-03T12:35:09.283Z,5.30
2019-01-03T12:37:38.649Z,5.40
2019-01-03T12:40:08.320Z,5.40
2019-01-03T12:42:37.722Z,5.30
2019-01-03T12:45:07.534Z,5.40
2019-01-03T12:47:36.864Z,5.40
2019-01-03T12:50:08.543Z,5.40
2019-01-03T12:52:37.955Z,5.40
2019-01-03T12:55:07.320Z,5.40
2019-01-03T12:57:36.762Z,5.40
2019-01-03T13:00:09.597Z,5.40
2019-01-03T13:02:38.934Z,5.40
2019-01-03T13:05:08.493Z,5.40
2019-01-03T13:07:37.952Z,5.30
2019-01-03T13:10:08.607Z,5.30
2019-01-03T13:12:38.072Z,5.20
2019-01-03T13:15:08.338Z,5.20
2019-01-03T13:17:37.751Z,5.20
2019-01-03T13:20:08.430Z,5.20
2019-01-03T13:22:37.820Z,5.30
2019-01-03T13:25:07.634Z,5.20
2019-01-03T13:27:37.034Z,5.20
2019-01-03T13:30:07.699Z,5.20
2019-01-03T13:32:37.080Z,5.20
2019-01-03T13:35:06.532Z,5.20
2019-01-03T13:37:35.977Z,5.20
2019-01-03T13:40:06.361Z,5.10
2019-01-03T13:42:35.830Z,5.10
2019-01-03T13:45:05.529Z,5.10
2019-01-03T13:47:34.963Z,5.00
2019-01-03T13:50:05.143Z,5.00
2019-01-03T13:52:34.530Z,5.00
2019-01-03T13:55:04.011Z,5.00
2019-01-03T13:57:33.522Z,5.00
2019-01-03T14:00:03.146Z,4.90
2019-01-03T14:02:32.505Z,4.90
2019-01-03T14:05:02.010Z,4.90
2019-01-03T14:07:31.414Z,4.90
2019-01-03T14:10:00.777Z,4.90
2019-01-03T14:12:30.160Z,4.90
2019-01-03T14:14:59.572Z,4.90
2019-01-03T14:17:28.999Z,4.90
2019-01-03T14:19:58.444Z,4.90
2019-01-03T14:22:27.870Z,4.90
2019-01-03T14:24:57.211Z,4.90
2019-01-03T14:27:26.709Z,4.80
2019-01-03T14:29:56.269Z,4.90
2019-01-03T14:32:25.666Z,4.90
2019-01-03T14:34:55.137Z,4.90
2019-01-03T14:37:24.549Z,4.90
2019-01-03T14:39:54.009Z,4.90
2019-01-03T14:42:23.487Z,4.80
2019-01-03T14:44:52.944Z,4.80
2019-01-03T14:47:22.305Z,4.80
2019-01-03T14:49:51.719Z,4.80
2019-01-03T14:52:21.172Z,4.80
2019-01-03T14:54:50.552Z,4.80
2019-01-03T14:57:20.066Z,4.80
2019-01-03T14:59:49.450Z,4.80
2019-01-03T15:02:18.830Z,4.80
2019-01-03T15:04:48.329Z,4.80
2019-01-03T15:07:18.023Z,4.70
2019-01-03T15:09:47.372Z,4.70
2019-01-03T15:12:16.805Z,4.70
2019-01-03T15:14:46.153Z,4.70
2019-01-03T15:17:15.586Z,4.60
2019-01-03T15:19:45.025Z,4.60
2019-01-03T15:22:14.416Z,4.60
2019-01-03T15:24:43.861Z,4.50
2019-01-03T15:27:13.227Z,4.50
2019-01-03T15:29:42.668Z,4.50
2019-01-03T15:32:12.106Z,4.40
2019-01-03T15:34:41.542Z,4.40
2019-01-03T15:37:10.874Z,4.40
2019-01-03T15:39:40.226Z,4.30
2019-01-03T15:42:12.912Z,4.30
2019-01-03T15:44:42.331Z,4.30
2019-01-03T15:47:11.740Z,4.30
2019-01-03T15:49:41.149Z,4.20
2019-01-03T15:52:10.493Z,4.20
2019-01-03T15:54:39.836Z,4.20
2019-01-03T15:57:09.263Z,4.10
2019-01-03T15:59:38.711Z,4.10
2019-01-03T16:02:08.156Z,4.00
2019-01-03T16:04:37.665Z,4.00
2019-01-03T16:07:07.081Z,4.00
2019-01-03T16:09:36.508Z,3.90
2019-01-03T16:12:05.882Z,3.90
2019-01-03T16:14:35.276Z,3.90
2019-01-03T16:17:04.663Z,3.80
2019-01-03T16:19:34.093Z,3.80
2019-01-03T16:22:03.448Z,3.80
2019-01-03T16:24:32.794Z,3.70
2019-01-03T16:27:02.327Z,3.70
2019-01-03T16:29:31.739Z,3.70
2019-01-03T16:32:01.112Z,3.60
2019-01-03T16:34:30.557Z,3.60
2019-01-03T16:36:59.885Z,3.50
2019-01-03T16:39:29.223Z,3.50
2019-01-03T16:41:58.648Z,3.50
2019-01-03T16:44:28.012Z,3.40
2019-01-03T16:46:57.748Z,3.40
2019-01-03T16:49:27.164Z,3.40
2019-01-03T16:51:56.473Z,3.30
2019-01-03T16:54:25.827Z,3.30
2019-01-03T16:56:55.354Z,3.30
2019-01-03T16:59:24.817Z,3.20
2019-01-03T17:01:54.270Z,3.20
2019-01-03T17:04:23.806Z,3.10
2019-01-03T17:06:53.160Z,3.10
2019-01-03T17:09:22.602Z,3.10
2019-01-03T17:11:52.634Z,3.00
2019-01-03T17:14:22.043Z,3.00
2019-01-03T17:16:51.412Z,3.00
2019-01-03T17:19:20.880Z,2.90
2019-01-03T17:21:50.222Z,2.90
2019-01-03T17:24:19.558Z,2.90
2019-01-03T17:26:49.020Z,2.90
2019-01-03T17:29:18.469Z,2.80
2019-01-03T17:31:47.860Z,2.80
2019-01-03T17:34:17.391Z,2.80
2019-01-03T17:36:46.749Z,2.80
2019-01-03T17:39:16.090Z,2.70
2019-01-03T17:41:45.553Z,2.70
2019-01-03T17:44:14.953Z,2.70
2019-01-03T17:46:44.371Z,2.60
2019-01-03T17:49:13.878Z,2.60
2019-01-03T17:51:43.340Z,2.60
2019-01-03T17:54:12.714Z,2.60
2019-01-03T17:56:42.173Z,2.60
2019-01-03T17:59:11.559Z,2.60
2019-01-03T18:01:40.983Z,2.60
2019-01-03T18:04:10.429Z,2.50
2019-01-03T18:06:39.751Z,2.50
2019-01-03T18:09:09.072Z,2.40
2019-01-03T18:11:38.464Z,2.50
2019-01-03T18:14:07.818Z,2.40
2019-01-03T18:16:37.286Z,2.40
2019-01-03T18:19:06.764Z,2.40
2019-01-03T18:21:36.119Z,2.40
2019-01-03T18:24:05.566Z,2.40
2019-01-03T18:26:35.036Z,2.40
2019-01-03T18:29:04.475Z,2.30
2019-01-03T18:31:33.813Z,2.30
2019-01-03T18:34:03.288Z,2.30
2019-01-03T18:36:32.680Z,2.30
2019-01-03T18:39:02.099Z,2.30
2019-01-03T18:41:31.536Z,2.20
2019-01-03T18:44:00.990Z,2.20
2019-01-03T18:46:30.436Z,2.20
2019-01-03T18:48:59.848Z,2.20
2019-01-03T18:51:29.266Z,2.20
2019-01-03T18:53:58.633Z,2.10
2019-01-03T18:56:28.121Z,2.10
2019-01-03T18:58:57.500Z,2.10
2019-01-03T19:01:26.943Z,2.10
2019-01-03T19:03:56.389Z,2.00
2019-01-03T19:06:25.753Z,2.00
2019-01-03T19:08:55.116Z,2.00
2019-01-03T19:11:24.579Z,2.00
2019-01-03T19:13:54.027Z,2.00
2019-01-03T19:16:23.463Z,2.00
2019-01-03T19:18:53.034Z,2.00
2019-01-03T19:21:22.392Z,1.90
2019-01-03T19:23:55.407Z,1.90
2019-01-03T19:26:22.934Z,1.90
2019-01-03T19:28:52.329Z,1.90
2019-01-03T19:31:21.785Z,1.80
2019-01-03T19:33:51.194Z,1.80
2019-01-03T19:36:20.615Z,1.90
2019-01-03T19:38:50.054Z,1.90
2019-01-03T19:41:19.451Z,1.80
2019-01-03T19:43:48.854Z,1.90
2019-01-03T19:46:18.174Z,1.80
2019-01-03T19:48:47.622Z,1.80
2019-01-03T19:51:16.958Z,1.80
2019-01-03T19:53:46.282Z,1.80
2019-01-03T19:56:15.725Z,1.80
2019-01-03T19:58:45.090Z,1.90
2019-01-03T20:01:14.512Z,1.80
2019-01-03T20:03:43.922Z,1.80
2019-01-03T20:06:13.288Z,1.80
2019-01-03T20:08:42.631Z,1.90
2019-01-03T20:11:12.058Z,1.90
2019-01-03T20:13:41.436Z,1.90
2019-01-03T20:16:10.908Z,1.80
2019-01-03T20:18:40.374Z,1.80
2019-01-03T20:21:09.712Z,1.70
2019-01-03T20:23:39.145Z,1.70
2019-01-03T20:26:08.585Z,1.80
2019-01-03T20:28:38.024Z,1.70
2019-01-03T20:31:07.377Z,1.70
2019-01-03T20:33:36.764Z,1.70
2019-01-03T20:36:06.105Z,1.70
2019-01-03T20:38:36.387Z,1.60
2019-01-03T20:41:05.812Z,1.60
2019-01-03T20:43:39.196Z,1.60
2019-01-03T20:46:06.175Z,1.60
2019-01-03T20:48:35.581Z,1.60
2019-01-03T20:51:04.955Z,1.50
2019-01-03T20:53:34.358Z,1.50
2019-01-03T20:56:03.764Z,1.50
2019-01-03T20:58:33.164Z,1.50
2019-01-03T21:01:02.506Z,1.50
2019-01-03T21:03:31.884Z,1.50
2019-01-03T21:06:01.208Z,1.40
2019-01-03T21:08:30.549Z,1.40
2019-01-03T21:10:59.944Z,1.40
2019-01-03T21:13:29.392Z,1.40
2019-01-03T21:15:58.742Z,1.40
2019-01-03T21:18:28.186Z,1.40
2019-01-03T21:20:57.559Z,1.30
2019-01-03T21:23:26.952Z,1.30
2019-01-03T21:25:56.396Z,1.30
2019-01-03T21:28:25.799Z,1.30
2019-01-03T21:30:55.220Z,1.30
2019-01-03T21:33:24.663Z,1.30
2019-01-03T21:35:54.007Z,1.30
2019-01-03T21:38:23.319Z,1.20
2019-01-03T21:40:53.604Z,1.20
2019-01-03T21:43:22.965Z,1.20
2019-01-03T21:45:52.394Z,1.20
2019-01-03T21:48:21.873Z,1.20
2019-01-03T21:50:51.311Z,1.20
2019-01-03T21:53:20.693Z,1.20
2019-01-03T21:55:50.100Z,1.10
2019-01-03T21:58:19.466Z,1.10
2019-01-03T22:00:48.935Z,1.10
2019-01-03T22:03:18.417Z,1.10
2019-01-03T22:05:47.880Z,1.10
2019-01-03T22:08:17.318Z,1.10
2019-01-03T22:10:46.748Z,1.20
2019-01-03T22:13:16.233Z,1.20
2019-01-03T22:15:45.698Z,1.10
2019-01-03T22:18:15.977Z,1.10
2019-01-03T22:20:45.384Z,1.10
2019-01-03T22:23:14.810Z,1.10
2019-01-03T22:25:44.360Z,1.10
2019-01-03T22:28:13.821Z,1.10
2019-01-03T22:30:44.813Z,1.10
2019-01-03T22:33:14.372Z,1.10
2019-01-03T22:35:43.740Z,1.10
2019-01-03T22:38:13.151Z,1.10
2019-01-03T22:40:42.605Z,1.10
2019-01-03T22:43:12.097Z,1.10
2019-01-03T22:45:41.550Z,1.10
2019-01-03T22:48:10.967Z,1.10
2019-01-03T22:50:40.310Z,1.10
2019-01-03T22:53:09.819Z,1.10
2019-01-03T22:55:39.276Z,1.10
2019-01-03T22:58:08.675Z,1.00
2019-01-03T23:00:44.838Z,1.00
2019-01-03T23:03:14.177Z,1.00
2019-01-03T23:05:43.608Z,1.00
2019-01-03T23:08:13.106Z,1.00
2019-01-03T23:10:42.824Z,1.00
2019-01-03T23:13:12.315Z,1.10
2019-01-03T23:15:41.786Z,1.00
2019-01-03T23:18:11.195Z,1.00
2019-01-03T23:20:40.654Z,1.10
2019-01-03T23:23:10.078Z,1.00
2019-01-03T23:25:39.570Z,1.00
2019-01-03T23:28:09.788Z,1.00
2019-01-03T23:30:39.214Z,1.00
2019-01-03T23:33:08.662Z,1.00
2019-01-03T23:35:37.990Z,1.00
2019-01-03T23:38:07.390Z,1.00
2019-01-03T23:40:36.836Z,1.00
2019-01-03T23:43:07.380Z,1.00
2019-01-03T23:45:36.901Z,1.00
2019-01-03T23:48:06.277Z,1.00
2019-01-03T23:50:36.617Z,1.00
2019-01-03T23:53:06.535Z,1.00
2019-01-03T23:55:50.619Z,1.00
2019-01-03T23:58:20.046Z,1.00
